createdAt,value
2017-08-26T00:01:32.304Z,98690.41
2017-08-26T00:04:01.733Z,98692.72
2017-08-26T00:06:31.179Z,98700.63
2017-08-26T00:09:00.450Z,98703.09
2017-08-26T00:11:30.138Z,98700.22
2017-08-26T00:14:00.139Z,98706.63
2017-08-26T00:16:29.648Z,98703.48
2017-08-26T00:18:59.109Z,98702.77
2017-08-26T00:21:28.575Z,98698.13
2017-08-26T00:23:58.013Z,98706.58
2017-08-26T00:26:27.444Z,98702.08
2017-08-26T00:28:56.893Z,98703.44
2017-08-26T00:31:26.366Z,98708.20
2017-08-26T00:33:55.842Z,98701.39
2017-08-26T00:36:25.121Z,98702.70
2017-08-26T00:38:54.562Z,98697.52
2017-08-26T00:41:24.001Z,98691.21
2017-08-26T00:43:53.472Z,98692.02
2017-08-26T00:46:22.909Z,98700.56
2017-08-26T00:48:52.358Z,98704.66
2017-08-26T00:51:21.813Z,98707.55
2017-08-26T00:53:51.264Z,98711.80
2017-08-26T00:56:20.702Z,98707.25
2017-08-26T00:58:50.168Z,98706.86
2017-08-26T01:01:19.617Z,98706.90
2017-08-26T01:03:49.063Z,98706.67
2017-08-26T01:06:18.492Z,98706.02
2017-08-26T01:08:47.937Z,98706.61
2017-08-26T01:11:17.396Z,98706.07
2017-08-26T01:13:46.665Z,98705.30
2017-08-26T01:16:16.101Z,98707.39
2017-08-26T01:18:45.563Z,98701.99
2017-08-26T01:21:15.003Z,98700.31
2017-08-26T01:23:44.451Z,98708.13
2017-08-26T01:26:13.884Z,98705.30
2017-08-26T01:28:43.358Z,98708.77
2017-08-26T01:31:12.788Z,98703.25
2017-08-26T01:33:42.229Z,98710.21
2017-08-26T01:36:11.488Z,98715.59
2017-08-26T01:38:40.935Z,98717.38
2017-08-26T01:41:10.392Z,98708.66
2017-08-26T01:43:39.865Z,98717.27
2017-08-26T01:46:09.318Z,98717.81
2017-08-26T01:48:38.774Z,98724.49
2017-08-26T01:51:08.196Z,98728.48
2017-08-26T01:53:37.646Z,98728.75
2017-08-26T01:56:07.181Z,98730.25
2017-08-26T01:58:36.716Z,98723.48
2017-08-26T02:01:06.152Z,98718.48
2017-08-26T02:03:35.598Z,98712.23
2017-08-26T02:06:05.048Z,98723.30
2017-08-26T02:08:34.505Z,98725.50
2017-08-26T02:11:03.964Z,98728.23
2017-08-26T02:13:33.210Z,98730.37
2017-08-26T02:16:02.664Z,98725.73
2017-08-26T02:18:32.112Z,98737.14
2017-08-26T02:21:01.572Z,98736.90
2017-08-26T02:23:31.017Z,98738.27
2017-08-26T02:26:00.482Z,98742.42
2017-08-26T02:28:30.004Z,98739.73
2017-08-26T02:30:59.270Z,98743.03
2017-08-26T02:33:28.726Z,98740.89
2017-08-26T02:35:58.187Z,98736.81
2017-08-26T02:38:27.622Z,98739.94
2017-08-26T02:40:57.073Z,98739.02
2017-08-26T02:43:26.520Z,98738.34
2017-08-26T02:45:55.965Z,98738.52
2017-08-26T02:48:25.420Z,98738.78
2017-08-26T02:50:54.864Z,98738.55
2017-08-26T02:53:24.313Z,98735.96
2017-08-26T02:55:53.765Z,98745.72
2017-08-26T02:58:23.198Z,98749.36
2017-08-26T03:00:52.648Z,98758.99
2017-08-26T03:03:22.097Z,98753.79
2017-08-26T03:05:51.549Z,98753.24
2017-08-26T03:08:21.018Z,98750.02
2017-08-26T03:10:50.477Z,98748.92
2017-08-26T03:13:20.015Z,98742.53
2017-08-26T03:15:49.448Z,98745.63
2017-08-26T03:18:18.890Z,98742.22
2017-08-26T03:20:48.355Z,98759.88
2017-08-26T03:23:17.817Z,98765.39
2017-08-26T03:25:47.517Z,98770.15
2017-08-26T03:28:16.974Z,98769.20
2017-08-26T03:30:46.421Z,98766.88
2017-08-26T03:33:15.879Z,98768.79
2017-08-26T03:35:45.525Z,98772.05
2017-08-26T03:38:14.970Z,98780.12
2017-08-26T03:40:44.421Z,98774.54
2017-08-26T03:43:13.887Z,98760.93
2017-08-26T03:45:43.344Z,98768.41
2017-08-26T03:48:12.795Z,98780.09
2017-08-26T03:50:42.251Z,98781.41
2017-08-26T03:53:11.704Z,98780.70
2017-08-26T03:55:41.783Z,98782.16
2017-08-26T03:58:11.228Z,98788.92
2017-08-26T04:00:40.713Z,98798.80
2017-08-26T04:03:10.169Z,98793.75
2017-08-26T04:05:39.831Z,98800.39
2017-08-26T04:08:09.270Z,98799.54
2017-08-26T04:10:38.708Z,98794.63
2017-08-26T04:13:08.182Z,98796.41
2017-08-26T04:15:37.451Z,98803.31
2017-08-26T04:18:06.903Z,98820.06
2017-08-26T04:20:36.352Z,98813.63
2017-08-26T04:23:05.806Z,98803.81
2017-08-26T04:25:35.256Z,98803.50
2017-08-26T04:28:04.740Z,98800.47
2017-08-26T04:30:34.184Z,98803.29
2017-08-26T04:33:03.665Z,98816.83
2017-08-26T04:35:33.130Z,98837.05
2017-08-26T04:38:02.812Z,98853.91
2017-08-26T04:40:32.255Z,98872.27
2017-08-26T04:43:01.751Z,98868.86
2017-08-26T04:45:32.117Z,98870.73
2017-08-26T04:48:01.560Z,98872.05
2017-08-26T04:50:31.004Z,98870.37
2017-08-26T04:53:00.475Z,98864.45
2017-08-26T04:55:29.928Z,98865.41
2017-08-26T04:57:59.374Z,98864.28
2017-08-26T05:00:28.936Z,98874.45
2017-08-26T05:02:58.397Z,98875.09
2017-08-26T05:05:28.117Z,98876.67
2017-08-26T05:07:57.597Z,98867.58
2017-08-26T05:10:27.161Z,98868.61
2017-08-26T05:12:56.605Z,98866.69
2017-08-26T05:15:26.061Z,98870.26
2017-08-26T05:17:55.522Z,98869.16
2017-08-26T05:20:24.964Z,98875.45
2017-08-26T05:22:54.438Z,98882.57
2017-08-26T05:25:23.977Z,98889.02
2017-08-26T05:27:53.677Z,98887.39
2017-08-26T05:30:23.162Z,98879.25
2017-08-26T05:32:52.616Z,98879.30
2017-08-26T05:35:22.149Z,98889.03
2017-08-26T05:37:51.593Z,98883.58
2017-08-26T05:40:21.082Z,98888.69
2017-08-26T05:42:50.540Z,98904.70
2017-08-26T05:45:19.885Z,98892.47
2017-08-26T05:47:49.337Z,98885.19
2017-08-26T05:50:18.651Z,98888.50
2017-08-26T05:52:48.107Z,98885.95
2017-08-26T05:55:17.662Z,98879.03
2017-08-26T05:57:47.099Z,98878.30
2017-08-26T06:00:16.632Z,98872.80
2017-08-26T06:02:46.085Z,98874.77
2017-08-26T06:05:15.671Z,98870.30
2017-08-26T06:07:45.113Z,98874.70
2017-08-26T06:10:14.621Z,98877.17
2017-08-26T06:12:44.080Z,98874.98
2017-08-26T06:15:13.593Z,98868.59
2017-08-26T06:17:43.036Z,98877.67
2017-08-26T06:20:12.351Z,98880.38
2017-08-26T06:22:41.807Z,98878.63
2017-08-26T06:25:11.322Z,98874.85
2017-08-26T06:27:40.763Z,98882.47
2017-08-26T06:30:10.280Z,98877.33
2017-08-26T06:32:39.751Z,98877.13
2017-08-26T06:35:09.284Z,98875.18
2017-08-26T06:37:38.733Z,98874.04
2017-08-26T06:40:08.240Z,98879.86
2017-08-26T06:42:37.677Z,98881.63
2017-08-26T06:45:07.220Z,98869.14
2017-08-26T06:47:36.669Z,98872.77
2017-08-26T06:50:06.172Z,98873.42
2017-08-26T06:52:35.619Z,98878.41
2017-08-26T06:55:05.116Z,98875.24
2017-08-26T06:57:34.557Z,98875.45
2017-08-26T07:00:04.109Z,98875.52
2017-08-26T07:02:33.416Z,98872.33
2017-08-26T07:05:02.927Z,98865.13
2017-08-26T07:07:32.369Z,98858.25
2017-08-26T07:10:01.875Z,98858.09
2017-08-26T07:12:31.314Z,98866.28
2017-08-26T07:15:00.773Z,98861.53
2017-08-26T07:17:30.222Z,98866.24
2017-08-26T07:19:59.681Z,98857.61
2017-08-26T07:22:29.133Z,98846.72
2017-08-26T07:24:58.592Z,98847.91
2017-08-26T07:27:28.048Z,98847.15
2017-08-26T07:29:57.497Z,98846.81
2017-08-26T07:32:26.957Z,98835.20
2017-08-26T07:34:56.429Z,98844.91
2017-08-26T07:37:25.940Z,98842.22
2017-08-26T07:39:55.397Z,98840.70
2017-08-26T07:42:24.854Z,98841.57
2017-08-26T07:44:54.305Z,98841.59
2017-08-26T07:47:23.764Z,98842.70
2017-08-26T07:49:53.225Z,98845.55
2017-08-26T07:52:22.941Z,98840.64
2017-08-26T07:54:52.485Z,98846.67
2017-08-26T07:57:21.941Z,98843.82
2017-08-26T07:59:51.417Z,98851.00
2017-08-26T08:02:20.894Z,98853.36
2017-08-26T08:04:50.353Z,98847.11
2017-08-26T08:07:19.839Z,98852.66
2017-08-26T08:09:49.300Z,98851.16
2017-08-26T08:12:18.768Z,98858.31
2017-08-26T08:14:48.224Z,98855.69
2017-08-26T08:17:17.696Z,98852.47
2017-08-26T08:19:47.149Z,98855.53
2017-08-26T08:22:16.614Z,98857.56
2017-08-26T08:24:46.107Z,98853.72
2017-08-26T08:27:15.540Z,98854.08
2017-08-26T08:29:45.005Z,98865.27
2017-08-26T08:32:14.479Z,98865.16
2017-08-26T08:34:43.922Z,98862.09
2017-08-26T08:37:13.422Z,98860.50
2017-08-26T08:39:42.975Z,98857.59
2017-08-26T08:42:12.435Z,98860.06
2017-08-26T08:44:41.905Z,98858.50
2017-08-26T08:47:11.343Z,98856.30
2017-08-26T08:49:40.799Z,98855.98
2017-08-26T08:52:10.258Z,98852.57
2017-08-26T08:54:39.775Z,98853.23
2017-08-26T08:57:09.053Z,98853.84
2017-08-26T08:59:38.525Z,98849.33
2017-08-26T09:02:07.982Z,98850.98
2017-08-26T09:04:37.445Z,98855.93
2017-08-26T09:07:06.907Z,98852.13
2017-08-26T09:09:36.376Z,98851.11
2017-08-26T09:12:05.848Z,98851.56
2017-08-26T09:14:35.297Z,98852.49
2017-08-26T09:17:04.751Z,98842.52
2017-08-26T09:19:34.213Z,98843.82
2017-08-26T09:22:03.672Z,98851.78
2017-08-26T09:24:33.130Z,98851.41
2017-08-26T09:27:02.594Z,98854.36
2017-08-26T09:29:32.074Z,98847.90
2017-08-26T09:32:01.528Z,98853.55
2017-08-26T09:34:30.984Z,98843.94
2017-08-26T09:37:00.453Z,98844.50
2017-08-26T09:39:29.896Z,98850.47
2017-08-26T09:41:59.360Z,98842.73
2017-08-26T09:44:28.805Z,98840.33
2017-08-26T09:46:58.264Z,98838.98
2017-08-26T09:49:27.525Z,98840.39
2017-08-26T09:51:57.160Z,98829.66
2017-08-26T09:54:26.640Z,98832.64
2017-08-26T09:56:56.088Z,98824.88
2017-08-26T09:59:25.560Z,98830.31
2017-08-26T10:01:55.017Z,98824.10
2017-08-26T10:04:24.482Z,98815.49
2017-08-26T10:06:53.940Z,98821.38
2017-08-26T10:09:23.401Z,98821.63
2017-08-26T10:11:52.873Z,98819.48
2017-08-26T10:14:22.359Z,98819.70
2017-08-26T10:16:52.060Z,98817.20
2017-08-26T10:19:21.570Z,98812.69
2017-08-26T10:21:51.040Z,98806.48
2017-08-26T10:24:20.537Z,98803.52
2017-08-26T10:26:49.996Z,98811.86
2017-08-26T10:29:19.448Z,98806.08
2017-08-26T10:31:48.720Z,98800.58
2017-08-26T10:34:17.988Z,98802.19
2017-08-26T10:36:47.256Z,98796.73
2017-08-26T10:39:16.515Z,98797.50
2017-08-26T10:41:45.806Z,98796.95
2017-08-26T10:44:15.104Z,98795.79
2017-08-26T10:46:44.352Z,98793.02
2017-08-26T10:49:15.389Z,98790.59
2017-08-26T10:51:44.680Z,98786.53
2017-08-26T10:54:14.149Z,98787.66
2017-08-26T10:56:43.608Z,98774.93
2017-08-26T10:59:13.146Z,98776.80
2017-08-26T11:01:43.580Z,98772.86
2017-08-26T11:04:13.031Z,98771.24
2017-08-26T11:06:42.483Z,98769.56
2017-08-26T11:09:11.949Z,98768.42
2017-08-26T11:11:41.442Z,98763.80
2017-08-26T11:14:10.900Z,98758.23
2017-08-26T11:16:40.381Z,98757.30
2017-08-26T11:19:09.833Z,98748.77
2017-08-26T11:21:39.284Z,98752.02
2017-08-26T11:24:08.545Z,98753.42
2017-08-26T11:26:38.023Z,98750.50
2017-08-26T11:29:07.468Z,98748.78
2017-08-26T11:31:36.941Z,98742.08
2017-08-26T11:34:06.385Z,98744.09
2017-08-26T11:36:35.840Z,98738.84
2017-08-26T11:39:04.724Z,98745.06
2017-08-26T11:41:34.176Z,98731.59
2017-08-26T11:44:03.627Z,98730.29
2017-08-26T11:46:33.085Z,98735.16
2017-08-26T11:49:02.545Z,98735.70
2017-08-26T11:51:32.005Z,98726.22
2017-08-26T11:54:01.466Z,98716.75
2017-08-26T11:56:30.918Z,98720.48
2017-08-26T11:59:00.359Z,98719.05
2017-08-26T12:01:29.812Z,98720.86
2017-08-26T12:03:59.280Z,98720.73
2017-08-26T12:06:28.717Z,98723.47
2017-08-26T12:08:58.167Z,98721.64
2017-08-26T12:11:27.860Z,98724.34
2017-08-26T12:13:57.315Z,98714.81
2017-08-26T12:16:26.779Z,98714.47
2017-08-26T12:18:56.265Z,98711.59
2017-08-26T12:21:25.706Z,98709.89
2017-08-26T12:23:55.192Z,98703.63
2017-08-26T12:26:24.623Z,98701.48
2017-08-26T12:28:54.058Z,98706.59
2017-08-26T12:31:23.569Z,98705.48
2017-08-26T12:33:53.026Z,98704.66
2017-08-26T12:36:22.557Z,98709.98
2017-08-26T12:38:52.004Z,98710.86
2017-08-26T12:41:21.288Z,98704.97
2017-08-26T12:43:50.712Z,98704.44
2017-08-26T12:46:20.190Z,98694.03
2017-08-26T12:48:49.632Z,98695.88
2017-08-26T12:51:18.892Z,98694.68
2017-08-26T12:53:48.143Z,98695.27
2017-08-26T12:56:17.386Z,98689.23
2017-08-26T12:58:46.622Z,98687.02
2017-08-26T13:01:15.881Z,98684.39
2017-08-26T13:03:45.111Z,98684.73
2017-08-26T13:06:14.361Z,98678.34
2017-08-26T13:08:43.604Z,98672.39
2017-08-26T13:11:12.844Z,98675.00
2017-08-26T13:13:42.091Z,98672.44
2017-08-26T13:16:11.324Z,98660.01
2017-08-26T13:18:40.577Z,98659.40
2017-08-26T13:21:09.852Z,98666.54
2017-08-26T13:23:39.109Z,98662.63
2017-08-26T13:26:08.348Z,98652.63
2017-08-26T13:28:37.584Z,98657.45
2017-08-26T13:31:06.836Z,98658.45
2017-08-26T13:33:36.090Z,98657.55
2017-08-26T13:36:05.330Z,98657.24
2017-08-26T13:38:34.635Z,98654.88
2017-08-26T13:41:03.865Z,98651.66
2017-08-26T13:43:33.124Z,98657.07
2017-08-26T13:46:02.364Z,98650.37
2017-08-26T13:48:31.604Z,98649.80
2017-08-26T13:51:00.862Z,98651.81
2017-08-26T13:53:30.106Z,98642.22
2017-08-26T13:55:59.357Z,98633.84
2017-08-26T13:58:28.593Z,98637.34
2017-08-26T14:00:57.852Z,98628.75
2017-08-26T14:03:27.119Z,98626.43
2017-08-26T14:05:56.367Z,98627.64
2017-08-26T14:08:25.616Z,98624.70
2017-08-26T14:10:54.932Z,98625.09
2017-08-26T14:13:24.175Z,98621.20
2017-08-26T14:15:53.438Z,98622.67
2017-08-26T14:18:22.692Z,98621.86
2017-08-26T14:20:51.932Z,98621.73
2017-08-26T14:23:21.192Z,98627.41
2017-08-26T14:25:50.453Z,98622.95
2017-08-26T14:28:19.721Z,98626.77
2017-08-26T14:30:49.048Z,98619.04
2017-08-26T14:33:18.302Z,98618.02
2017-08-26T14:35:47.559Z,98616.81
2017-08-26T14:38:16.794Z,98618.95
2017-08-26T14:40:46.041Z,98608.62
2017-08-26T14:43:15.332Z,98603.53
2017-08-26T14:45:44.564Z,98604.06
2017-08-26T14:48:13.905Z,98590.91
2017-08-26T14:50:43.145Z,98593.91
2017-08-26T14:53:12.405Z,98590.37
2017-08-26T14:55:41.670Z,98586.47
2017-08-26T14:58:10.931Z,98583.34
2017-08-26T15:00:40.177Z,98581.19
2017-08-26T15:03:09.424Z,98579.70
2017-08-26T15:05:38.658Z,98573.72
2017-08-26T15:08:07.910Z,98567.77
2017-08-26T15:10:37.146Z,98564.58
2017-08-26T15:13:06.397Z,98562.59
2017-08-26T15:15:35.651Z,98561.38
2017-08-26T15:18:04.880Z,98558.47
2017-08-26T15:20:34.131Z,98554.13
2017-08-26T15:23:03.392Z,98554.56
2017-08-26T15:25:32.676Z,98555.50
2017-08-26T15:28:01.943Z,98559.20
2017-08-26T15:30:31.190Z,98552.91
2017-08-26T15:33:00.443Z,98543.25
2017-08-26T15:35:29.676Z,98547.23
2017-08-26T15:37:58.748Z,98541.56
2017-08-26T15:40:28.016Z,98545.15
2017-08-26T15:42:57.249Z,98536.73
2017-08-26T15:45:26.493Z,98539.15
2017-08-26T15:47:55.740Z,98537.63
2017-08-26T15:50:24.973Z,98535.92
2017-08-26T15:52:54.234Z,98535.07
2017-08-26T15:55:23.502Z,98536.31
2017-08-26T15:57:52.739Z,98532.77
2017-08-26T16:00:22.030Z,98528.84
2017-08-26T16:02:51.279Z,98527.49
2017-08-26T16:05:20.570Z,98525.20
2017-08-26T16:07:49.829Z,98521.44
2017-08-26T16:10:19.117Z,98518.73
2017-08-26T16:12:48.352Z,98513.74
2017-08-26T16:15:17.652Z,98514.56
2017-08-26T16:17:46.881Z,98511.11
2017-08-26T16:20:16.181Z,98505.98
2017-08-26T16:22:45.431Z,98503.88
2017-08-26T16:25:14.777Z,98499.05
2017-08-26T16:27:44.026Z,98496.59
2017-08-26T16:30:13.336Z,98497.14
2017-08-26T16:32:43.344Z,98497.94
2017-08-26T16:35:12.749Z,98496.31
2017-08-26T16:37:41.811Z,98497.30
2017-08-26T16:40:11.106Z,98488.69
2017-08-26T16:42:40.337Z,98493.00
2017-08-26T16:45:09.631Z,98494.42
2017-08-26T16:47:38.865Z,98481.19
2017-08-26T16:50:08.143Z,98487.90
2017-08-26T16:52:37.386Z,98487.05
2017-08-26T16:55:06.654Z,98482.45
2017-08-26T16:57:35.906Z,98479.75
2017-08-26T17:00:05.200Z,98481.78
2017-08-26T17:02:34.420Z,98475.83
2017-08-26T17:05:03.683Z,98478.00
2017-08-26T17:07:32.965Z,98480.48
2017-08-26T17:10:02.264Z,98482.98
2017-08-26T17:12:31.517Z,98481.43
2017-08-26T17:15:00.576Z,98475.95
2017-08-26T17:17:29.636Z,98480.41
2017-08-26T17:19:58.877Z,98483.00
2017-08-26T17:22:28.135Z,98489.16
2017-08-26T17:24:57.413Z,98480.25
2017-08-26T17:27:26.648Z,98484.86
2017-08-26T17:29:55.926Z,98484.25
2017-08-26T17:32:25.160Z,98495.55
2017-08-26T17:34:54.420Z,98487.28
2017-08-26T17:37:23.668Z,98485.83
2017-08-26T17:39:52.906Z,98497.16
2017-08-26T17:42:22.161Z,98493.28
2017-08-26T17:44:51.433Z,98496.98
2017-08-26T17:47:20.691Z,98498.91
2017-08-26T17:49:49.924Z,98495.14
2017-08-26T17:52:19.208Z,98503.19
2017-08-26T17:54:48.457Z,98498.29
2017-08-26T17:57:17.724Z,98499.71
2017-08-26T17:59:46.993Z,98499.47
2017-08-26T18:02:16.247Z,98503.28
2017-08-26T18:04:45.484Z,98503.47
2017-08-26T18:07:14.741Z,98504.78
2017-08-26T18:09:44.025Z,98509.63
2017-08-26T18:12:13.300Z,98506.71
2017-08-26T18:14:42.583Z,98498.44
2017-08-26T18:17:11.813Z,98496.12
2017-08-26T18:19:41.067Z,98496.92
2017-08-26T18:22:10.319Z,98488.90
2017-08-26T18:24:39.826Z,98493.30
2017-08-26T18:27:09.071Z,98495.15
2017-08-26T18:29:38.332Z,98497.82
2017-08-26T18:32:07.583Z,98505.81
2017-08-26T18:34:36.867Z,98508.16
2017-08-26T18:37:06.131Z,98506.07
2017-08-26T18:39:35.397Z,98501.14
2017-08-26T18:42:04.649Z,98509.45
2017-08-26T18:44:33.951Z,98515.86
2017-08-26T18:47:03.192Z,98516.45
2017-08-26T18:49:32.445Z,98518.66
2017-08-26T18:52:01.694Z,98515.47
2017-08-26T18:54:30.932Z,98521.97
2017-08-26T18:57:00.192Z,98533.50
2017-08-26T18:59:29.455Z,98539.11
2017-08-26T19:01:58.709Z,98539.69
2017-08-26T19:04:27.968Z,98540.20
2017-08-26T19:06:57.359Z,98541.23
2017-08-26T19:09:26.617Z,98546.06
2017-08-26T19:11:56.413Z,98549.42
2017-08-26T19:14:25.619Z,98552.98
2017-08-26T19:16:54.882Z,98561.92
2017-08-26T19:19:24.135Z,98560.23
2017-08-26T19:21:53.386Z,98558.02
2017-08-26T19:24:22.961Z,98564.69
2017-08-26T19:26:52.618Z,98560.80
2017-08-26T19:29:22.049Z,98563.17
2017-08-26T19:31:51.456Z,98556.46
2017-08-26T19:34:20.982Z,98560.09
2017-08-26T19:36:50.784Z,98559.70
2017-08-26T19:39:20.248Z,98566.18
2017-08-26T19:41:49.735Z,98565.39
2017-08-26T19:44:19.313Z,98575.31
2017-08-26T19:46:48.876Z,98574.05
2017-08-26T19:49:18.352Z,98579.03
2017-08-26T19:51:47.929Z,98584.77
2017-08-26T19:54:17.412Z,98585.99
2017-08-26T19:56:47.162Z,98587.27
2017-08-26T19:59:16.648Z,98599.37
2017-08-26T20:01:46.412Z,98605.11
2017-08-26T20:04:15.867Z,98608.42
2017-08-26T20:06:45.320Z,98613.79
2017-08-26T20:09:15.054Z,98614.27
2017-08-26T20:11:44.658Z,98618.85
2017-08-26T20:14:14.693Z,98619.28
2017-08-26T20:16:45.252Z,98628.00
2017-08-26T20:19:15.122Z,98632.19
2017-08-26T20:21:44.552Z,98622.02
2017-08-26T20:24:14.312Z,98620.65
2017-08-26T20:26:43.777Z,98626.30
2017-08-26T20:29:13.333Z,98623.24
2017-08-26T20:31:42.909Z,98625.83
2017-08-26T20:34:12.709Z,98624.83
2017-08-26T20:36:41.864Z,98619.11
2017-08-26T20:39:11.246Z,98609.79
2017-08-26T20:41:40.496Z,98613.41
2017-08-26T20:44:10.078Z,98614.05
2017-08-26T20:46:39.349Z,98610.23
2017-08-26T20:49:08.608Z,98618.28
2017-08-26T20:51:37.913Z,98631.94
2017-08-26T20:54:07.297Z,98632.11
2017-08-26T20:56:36.569Z,98647.91
2017-08-26T20:59:05.975Z,98654.36
2017-08-26T21:01:35.357Z,98656.84
2017-08-26T21:04:04.656Z,98654.87
2017-08-26T21:06:34.014Z,98670.16
2017-08-26T21:09:03.225Z,98667.05
2017-08-26T21:11:32.887Z,98663.08
2017-08-26T21:14:02.340Z,98664.70
2017-08-26T21:16:31.931Z,98660.50
2017-08-26T21:19:01.566Z,98665.53
2017-08-26T21:21:32.374Z,98668.44
2017-08-26T21:24:02.225Z,98669.03
2017-08-26T21:26:31.868Z,98672.44
2017-08-26T21:29:02.073Z,98667.51
2017-08-26T21:31:32.634Z,98674.84
2017-08-26T21:34:02.373Z,98675.19
2017-08-26T21:36:32.104Z,98674.31
2017-08-26T21:39:02.197Z,98674.06
2017-08-26T21:41:32.277Z,98671.22
2017-08-26T21:44:02.109Z,98672.94
2017-08-26T21:46:31.627Z,98676.08
2017-08-26T21:49:03.921Z,98670.02
2017-08-26T21:51:33.770Z,98666.96
2017-08-26T21:54:03.252Z,98670.73
2017-08-26T21:56:32.570Z,98666.52
2017-08-26T21:59:02.136Z,98666.69
2017-08-26T22:01:32.749Z,98667.31
2017-08-26T22:04:02.444Z,98669.49
2017-08-26T22:06:31.988Z,98661.75
2017-08-26T22:09:01.433Z,98663.29
2017-08-26T22:11:30.945Z,98651.67
2017-08-26T22:14:00.213Z,98662.55
2017-08-26T22:16:30.887Z,98661.67
2017-08-26T22:19:00.330Z,98661.26
2017-08-26T22:21:29.790Z,98661.66
2017-08-26T22:23:59.252Z,98661.67
2017-08-26T22:26:28.721Z,98659.63
2017-08-26T22:28:58.535Z,98652.52
2017-08-26T22:31:28.221Z,98650.11
2017-08-26T22:33:57.967Z,98646.39
2017-08-26T22:36:27.723Z,98650.25
2017-08-26T22:38:57.474Z,98644.70
2017-08-26T22:41:26.960Z,98643.47
2017-08-26T22:43:57.096Z,98632.64
2017-08-26T22:46:26.684Z,98642.64
2017-08-26T22:48:56.352Z,98630.59
2017-08-26T22:51:25.633Z,98629.21
2017-08-26T22:53:55.045Z,98621.43
2017-08-26T22:56:25.041Z,98622.37
2017-08-26T22:58:54.664Z,98625.77
2017-08-26T23:01:24.200Z,98623.00
2017-08-26T23:03:53.468Z,98618.25
2017-08-26T23:06:23.998Z,98609.11
2017-08-26T23:08:53.684Z,98605.90
2017-08-26T23:11:23.262Z,98603.20
2017-08-26T23:13:52.523Z,98606.44
2017-08-26T23:16:22.276Z,98603.02
2017-08-26T23:18:52.120Z,98602.13
2017-08-26T23:21:21.943Z,98605.25
2017-08-26T23:23:51.464Z,98590.09
2017-08-26T23:26:21.044Z,98594.61
2017-08-26T23:28:51.166Z,98595.32
2017-08-26T23:31:20.725Z,98595.30
2017-08-26T23:33:50.278Z,98598.42
2017-08-26T23:36:19.724Z,98596.55
2017-08-26T23:38:49.413Z,98590.56
2017-08-26T23:41:18.901Z,98597.16
2017-08-26T23:43:48.395Z,98591.58
2017-08-26T23:46:17.850Z,98595.61
2017-08-26T23:48:47.467Z,98588.51
2017-08-26T23:51:16.935Z,98584.70
2017-08-26T23:53:46.381Z,98578.26
2017-08-26T23:56:15.844Z,98576.38
2017-08-26T23:58:45.280Z,98584.64
